sensor_id;sensor_type;location;lat;lon;timestamp;P1;durP1;ratioP1;P2;durP2;ratioP2
71294;SDS011;59080;31.686;73.862;2022-09-28T00:01:04;56.33;;;39.15;;
71294;SDS011;59080;31.686;73.862;2022-09-28T00:03:33;50.58;;;39.83;;
71294;SDS011;59080;31.686;73.862;2022-09-28T00:06:03;56.58;;;40.22;;
71294;SDS011;59080;31.686;73.862;2022-09-28T00:08:31;53.63;;;40.67;;
71294;SDS011;59080;31.686;73.862;2022-09-28T00:11:00;48.90;;;39.58;;
71294;SDS011;59080;31.686;73.862;2022-09-28T00:13:29;48.45;;;39.17;;
71294;SDS011;59080;31.686;73.862;2022-09-28T00:16:06;52.40;;;40.08;;
71294;SDS011;59080;31.686;73.862;2022-09-28T00:18:34;48.97;;;40.50;;
71294;SDS011;59080;31.686;73.862;2022-09-28T00:21:03;52.90;;;40.10;;
71294;SDS011;59080;31.686;73.862;2022-09-28T00:23:32;52.83;;;39.65;;
71294;SDS011;59080;31.686;73.862;2022-09-28T00:26:01;53.80;;;39.65;;
71294;SDS011;59080;31.686;73.862;2022-09-28T00:28:29;52.10;;;38.92;;
71294;SDS011;59080;31.686;73.862;2022-09-28T00:30:57;52.28;;;39.45;;
71294;SDS011;59080;31.686;73.862;2022-09-28T00:33:27;53.22;;;38.38;;
71294;SDS011;59080;31.686;73.862;2022-09-28T00:35:55;50.33;;;39.33;;
71294;SDS011;59080;31.686;73.862;2022-09-28T00:38:27;52.35;;;39.95;;
71294;SDS011;59080;31.686;73.862;2022-09-28T00:40:56;52.75;;;39.35;;
71294;SDS011;59080;31.686;73.862;2022-09-28T00:43:24;55.33;;;38.90;;
71294;SDS011;59080;31.686;73.862;2022-09-28T00:45:55;56.65;;;39.05;;
71294;SDS011;59080;31.686;73.862;2022-09-28T00:48:25;53.35;;;38.47;;
71294;SDS011;59080;31.686;73.862;2022-09-28T00:50:54;51.22;;;38.72;;
71294;SDS011;59080;31.686;73.862;2022-09-28T00:53:23;55.45;;;39.97;;
71294;SDS011;59080;31.686;73.862;2022-09-28T00:55:56;53.83;;;39.85;;
71294;SDS011;59080;31.686;73.862;2022-09-28T00:58:27;53.22;;;39.15;;
71294;SDS011;59080;31.686;73.862;2022-09-28T01:00:57;52.50;;;38.88;;
71294;SDS011;59080;31.686;73.862;2022-09-28T01:03:25;48.67;;;37.47;;
71294;SDS011;59080;31.686;73.862;2022-09-28T01:05:56;50.88;;;39.20;;
71294;SDS011;59080;31.686;73.862;2022-09-28T01:08:25;48.95;;;36.72;;
71294;SDS011;59080;31.686;73.862;2022-09-28T01:10:53;59.58;;;40.45;;
71294;SDS011;59080;31.686;73.862;2022-09-28T01:13:22;57.22;;;39.58;;
71294;SDS011;59080;31.686;73.862;2022-09-28T01:21:24;48.85;;;36.55;;
71294;SDS011;59080;31.686;73.862;2022-09-28T01:28:56;52.13;;;36.88;;
71294;SDS011;59080;31.686;73.862;2022-09-28T01:31:28;50.70;;;37.50;;
71294;SDS011;59080;31.686;73.862;2022-09-28T01:33:59;45.67;;;37.17;;
71294;SDS011;59080;31.686;73.862;2022-09-28T01:36:32;54.85;;;37.95;;
71294;SDS011;59080;31.686;73.862;2022-09-28T01:39:04;50.97;;;38.25;;
71294;SDS011;59080;31.686;73.862;2022-09-28T01:41:34;54.58;;;38.45;;
71294;SDS011;59080;31.686;73.862;2022-09-28T01:44:06;49.47;;;38.50;;
71294;SDS011;59080;31.686;73.862;2022-09-28T01:46:39;53.25;;;37.58;;
71294;SDS011;59080;31.686;73.862;2022-09-28T01:49:16;50.00;;;37.80;;
71294;SDS011;59080;31.686;73.862;2022-09-28T01:51:57;54.95;;;38.00;;
71294;SDS011;59080;31.686;73.862;2022-09-28T01:54:27;52.58;;;38.22;;
71294;SDS011;59080;31.686;73.862;2022-09-28T02:00:07;51.75;;;36.67;;
71294;SDS011;59080;31.686;73.862;2022-09-28T02:05:22;50.60;;;36.15;;
71294;SDS011;59080;31.686;73.862;2022-09-28T02:10:31;54.90;;;36.15;;
71294;SDS011;59080;31.686;73.862;2022-09-28T02:13:18;48.63;;;36.25;;
71294;SDS011;59080;31.686;73.862;2022-09-28T02:15:49;51.00;;;36.50;;
71294;SDS011;59080;31.686;73.862;2022-09-28T02:18:18;48.80;;;35.22;;
71294;SDS011;59080;31.686;73.862;2022-09-28T02:20:50;44.03;;;35.30;;
71294;SDS011;59080;31.686;73.862;2022-09-28T02:23:19;54.25;;;37.05;;
71294;SDS011;59080;31.686;73.862;2022-09-28T02:25:52;50.90;;;35.50;;
71294;SDS011;59080;31.686;73.862;2022-09-28T02:28:23;46.63;;;35.28;;
71294;SDS011;59080;31.686;73.862;2022-09-28T02:30:50;49.83;;;34.78;;
71294;SDS011;59080;31.686;73.862;2022-09-28T02:33:23;53.45;;;35.10;;
71294;SDS011;59080;31.686;73.862;2022-09-28T02:35:53;50.50;;;35.72;;
71294;SDS011;59080;31.686;73.862;2022-09-28T02:38:23;48.13;;;33.83;;
71294;SDS011;59080;31.686;73.862;2022-09-28T02:43:49;52.33;;;35.38;;
71294;SDS011;59080;31.686;73.862;2022-09-28T02:57:36;47.10;;;34.47;;
71294;SDS011;59080;31.686;73.862;2022-09-28T03:00:40;48.72;;;36.10;;
71294;SDS011;59080;31.686;73.862;2022-09-28T03:08:47;45.15;;;33.55;;
71294;SDS011;59080;31.686;73.862;2022-09-28T03:10:59;48.70;;;34.00;;
71294;SDS011;59080;31.686;73.862;2022-09-28T03:13:31;48.70;;;35.60;;
71294;SDS011;59080;31.686;73.862;2022-09-28T03:16:13;50.35;;;34.38;;
71294;SDS011;59080;31.686;73.862;2022-09-28T03:18:45;43.97;;;33.10;;
71294;SDS011;59080;31.686;73.862;2022-09-28T03:21:13;45.17;;;32.08;;
71294;SDS011;59080;31.686;73.862;2022-09-28T03:23:41;48.05;;;34.67;;
71294;SDS011;59080;31.686;73.862;2022-09-28T03:26:10;45.47;;;33.42;;
71294;SDS011;59080;31.686;73.862;2022-09-28T03:28:38;42.55;;;32.05;;
71294;SDS011;59080;31.686;73.862;2022-09-28T03:31:09;48.00;;;32.25;;
71294;SDS011;59080;31.686;73.862;2022-09-28T03:33:38;43.63;;;32.55;;
71294;SDS011;59080;31.686;73.862;2022-09-28T03:36:06;44.05;;;31.02;;
71294;SDS011;59080;31.686;73.862;2022-09-28T03:38:37;39.95;;;30.17;;
71294;SDS011;59080;31.686;73.862;2022-09-28T03:41:06;43.47;;;30.75;;
71294;SDS011;59080;31.686;73.862;2022-09-28T03:43:39;44.50;;;31.67;;
71294;SDS011;59080;31.686;73.862;2022-09-28T03:46:07;43.00;;;30.60;;
71294;SDS011;59080;31.686;73.862;2022-09-28T03:48:40;43.13;;;32.00;;
71294;SDS011;59080;31.686;73.862;2022-09-28T03:51:10;41.13;;;30.67;;
71294;SDS011;59080;31.686;73.862;2022-09-28T03:53:38;44.20;;;31.98;;
71294;SDS011;59080;31.686;73.862;2022-09-28T03:56:08;43.03;;;31.98;;
71294;SDS011;59080;31.686;73.862;2022-09-28T03:58:38;40.03;;;28.45;;
71294;SDS011;59080;31.686;73.862;2022-09-28T04:01:08;41.15;;;30.02;;
71294;SDS011;59080;31.686;73.862;2022-09-28T04:03:46;39.72;;;28.52;;
71294;SDS011;59080;31.686;73.862;2022-09-28T04:06:14;40.20;;;28.10;;
71294;SDS011;59080;31.686;73.862;2022-09-28T04:08:41;36.75;;;28.85;;
71294;SDS011;59080;31.686;73.862;2022-09-28T04:11:10;39.35;;;28.42;;
71294;SDS011;59080;31.686;73.862;2022-09-28T04:13:37;41.03;;;28.30;;
71294;SDS011;59080;31.686;73.862;2022-09-28T04:16:09;40.50;;;29.05;;
71294;SDS011;59080;31.686;73.862;2022-09-28T04:18:41;40.75;;;27.70;;
71294;SDS011;59080;31.686;73.862;2022-09-28T04:21:19;37.20;;;27.20;;
71294;SDS011;59080;31.686;73.862;2022-09-28T04:23:54;40.35;;;27.75;;
71294;SDS011;59080;31.686;73.862;2022-09-28T04:26:26;36.38;;;26.63;;
71294;SDS011;59080;31.686;73.862;2022-09-28T04:28:56;37.30;;;27.75;;
71294;SDS011;59080;31.686;73.862;2022-09-28T04:31:56;38.05;;;26.52;;
71294;SDS011;59080;31.686;73.862;2022-09-28T04:34:41;36.97;;;26.90;;
71294;SDS011;59080;31.686;73.862;2022-09-28T04:37:10;34.30;;;26.48;;
71294;SDS011;59080;31.686;73.862;2022-09-28T04:39:39;55.17;;;26.77;;
71294;SDS011;59080;31.686;73.862;2022-09-28T04:42:08;42.85;;;27.25;;
71294;SDS011;59080;31.686;73.862;2022-09-28T04:44:37;36.28;;;26.35;;
71294;SDS011;59080;31.686;73.862;2022-09-28T04:47:08;33.97;;;25.25;;
71294;SDS011;59080;31.686;73.862;2022-09-28T04:49:42;36.97;;;26.55;;
71294;SDS011;59080;31.686;73.862;2022-09-28T04:52:17;34.47;;;25.15;;
71294;SDS011;59080;31.686;73.862;2022-09-28T04:54:47;40.35;;;26.95;;
71294;SDS011;59080;31.686;73.862;2022-09-28T04:57:15;36.72;;;26.13;;
71294;SDS011;59080;31.686;73.862;2022-09-28T04:59:43;37.08;;;25.48;;
71294;SDS011;59080;31.686;73.862;2022-09-28T05:02:11;32.65;;;26.00;;
71294;SDS011;59080;31.686;73.862;2022-09-28T05:05:00;38.85;;;25.52;;
71294;SDS011;59080;31.686;73.862;2022-09-28T05:07:56;34.75;;;24.65;;
71294;SDS011;59080;31.686;73.862;2022-09-28T05:10:25;33.10;;;25.67;;
71294;SDS011;59080;31.686;73.862;2022-09-28T05:12:52;33.58;;;24.40;;
71294;SDS011;59080;31.686;73.862;2022-09-28T05:15:21;35.88;;;25.00;;
71294;SDS011;59080;31.686;73.862;2022-09-28T05:17:51;32.50;;;25.50;;
71294;SDS011;59080;31.686;73.862;2022-09-28T05:20:27;35.53;;;25.70;;
71294;SDS011;59080;31.686;73.862;2022-09-28T05:22:56;34.05;;;24.85;;
71294;SDS011;59080;31.686;73.862;2022-09-28T05:25:24;42.60;;;26.55;;
71294;SDS011;59080;31.686;73.862;2022-09-28T05:28:02;30.27;;;24.98;;
71294;SDS011;59080;31.686;73.862;2022-09-28T05:30:48;29.15;;;23.98;;
71294;SDS011;59080;31.686;73.862;2022-09-28T05:33:36;37.35;;;24.33;;
71294;SDS011;59080;31.686;73.862;2022-09-28T05:36:12;32.88;;;25.40;;
71294;SDS011;59080;31.686;73.862;2022-09-28T05:38:41;33.53;;;24.65;;
71294;SDS011;59080;31.686;73.862;2022-09-28T05:41:08;38.05;;;24.63;;
71294;SDS011;59080;31.686;73.862;2022-09-28T05:43:38;36.10;;;25.48;;
71294;SDS011;59080;31.686;73.862;2022-09-28T05:46:05;34.10;;;25.83;;
71294;SDS011;59080;31.686;73.862;2022-09-28T05:48:38;31.67;;;23.67;;
71294;SDS011;59080;31.686;73.862;2022-09-28T05:51:07;34.58;;;25.90;;
71294;SDS011;59080;31.686;73.862;2022-09-28T05:53:35;31.50;;;25.08;;
71294;SDS011;59080;31.686;73.862;2022-09-28T05:56:04;31.50;;;24.75;;
71294;SDS011;59080;31.686;73.862;2022-09-28T05:58:34;33.20;;;25.85;;
71294;SDS011;59080;31.686;73.862;2022-09-28T06:01:02;32.67;;;24.60;;
71294;SDS011;59080;31.686;73.862;2022-09-28T06:03:30;29.45;;;24.20;;
71294;SDS011;59080;31.686;73.862;2022-09-28T06:06:00;33.67;;;25.95;;
71294;SDS011;59080;31.686;73.862;2022-09-28T06:08:32;31.60;;;25.45;;
71294;SDS011;59080;31.686;73.862;2022-09-28T06:11:21;31.48;;;25.25;;
71294;SDS011;59080;31.686;73.862;2022-09-28T06:13:56;30.65;;;24.30;;
71294;SDS011;59080;31.686;73.862;2022-09-28T06:16:27;33.97;;;24.55;;
71294;SDS011;59080;31.686;73.862;2022-09-28T06:18:55;30.10;;;24.13;;
71294;SDS011;59080;31.686;73.862;2022-09-28T06:21:37;32.42;;;24.42;;
71294;SDS011;59080;31.686;73.862;2022-09-28T06:24:09;30.55;;;24.55;;
71294;SDS011;59080;31.686;73.862;2022-09-28T06:26:38;37.53;;;25.80;;
71294;SDS011;59080;31.686;73.862;2022-09-28T06:29:07;30.77;;;24.83;;
71294;SDS011;59080;31.686;73.862;2022-09-28T06:31:36;34.78;;;25.23;;
71294;SDS011;59080;31.686;73.862;2022-09-28T06:34:04;29.70;;;24.35;;
71294;SDS011;59080;31.686;73.862;2022-09-28T06:36:32;29.90;;;24.63;;
71294;SDS011;59080;31.686;73.862;2022-09-28T06:39:01;36.47;;;26.25;;
71294;SDS011;59080;31.686;73.862;2022-09-28T06:41:30;31.73;;;25.15;;
71294;SDS011;59080;31.686;73.862;2022-09-28T06:44:06;35.70;;;25.30;;
71294;SDS011;59080;31.686;73.862;2022-09-28T06:46:52;33.42;;;24.80;;
71294;SDS011;59080;31.686;73.862;2022-09-28T06:49:22;32.83;;;24.55;;
71294;SDS011;59080;31.686;73.862;2022-09-28T06:52:14;30.55;;;24.48;;
71294;SDS011;59080;31.686;73.862;2022-09-28T06:55:04;34.95;;;26.00;;
71294;SDS011;59080;31.686;73.862;2022-09-28T06:57:43;32.67;;;24.60;;
71294;SDS011;59080;31.686;73.862;2022-09-28T07:00:12;34.03;;;25.60;;
71294;SDS011;59080;31.686;73.862;2022-09-28T07:02:44;30.95;;;23.73;;
71294;SDS011;59080;31.686;73.862;2022-09-28T07:05:35;35.95;;;25.23;;
71294;SDS011;59080;31.686;73.862;2022-09-28T07:08:23;32.10;;;23.83;;
71294;SDS011;59080;31.686;73.862;2022-09-28T07:11:20;32.90;;;24.50;;
71294;SDS011;59080;31.686;73.862;2022-09-28T07:14:12;30.08;;;24.92;;
71294;SDS011;59080;31.686;73.862;2022-09-28T07:16:40;34.30;;;24.42;;
71294;SDS011;59080;31.686;73.862;2022-09-28T07:19:09;31.65;;;24.45;;
71294;SDS011;59080;31.686;73.862;2022-09-28T07:21:37;31.50;;;24.13;;
71294;SDS011;59080;31.686;73.862;2022-09-28T07:24:04;35.28;;;25.38;;
71294;SDS011;59080;31.686;73.862;2022-09-28T07:26:33;36.05;;;25.00;;
71294;SDS011;59080;31.686;73.862;2022-09-28T07:29:15;30.92;;;24.25;;
71294;SDS011;59080;31.686;73.862;2022-09-28T07:31:55;33.83;;;24.20;;
71294;SDS011;59080;31.686;73.862;2022-09-28T07:34:42;30.40;;;24.60;;
71294;SDS011;59080;31.686;73.862;2022-09-28T07:37:14;33.88;;;24.90;;
71294;SDS011;59080;31.686;73.862;2022-09-28T07:42:33;32.05;;;24.52;;
71294;SDS011;59080;31.686;73.862;2022-09-28T07:45:01;30.70;;;24.98;;
71294;SDS011;59080;31.686;73.862;2022-09-28T07:47:32;36.08;;;25.08;;
71294;SDS011;59080;31.686;73.862;2022-09-28T07:50:39;32.88;;;25.40;;
71294;SDS011;59080;31.686;73.862;2022-09-28T07:53:26;34.53;;;25.25;;
71294;SDS011;59080;31.686;73.862;2022-09-28T07:56:27;31.58;;;24.10;;
71294;SDS011;59080;31.686;73.862;2022-09-28T07:59:03;32.83;;;24.45;;
71294;SDS011;59080;31.686;73.862;2022-09-28T08:01:49;34.30;;;24.75;;
71294;SDS011;59080;31.686;73.862;2022-09-28T08:04:17;35.65;;;26.80;;
71294;SDS011;59080;31.686;73.862;2022-09-28T08:06:45;35.80;;;26.05;;
71294;SDS011;59080;31.686;73.862;2022-09-28T08:09:13;34.22;;;25.33;;
71294;SDS011;59080;31.686;73.862;2022-09-28T08:12:00;31.98;;;25.02;;
71294;SDS011;59080;31.686;73.862;2022-09-28T08:14:56;36.03;;;24.73;;
71294;SDS011;59080;31.686;73.862;2022-09-28T08:17:45;31.80;;;25.27;;
71294;SDS011;59080;31.686;73.862;2022-09-28T08:20:13;30.50;;;24.95;;
71294;SDS011;59080;31.686;73.862;2022-09-28T08:23:06;33.47;;;25.50;;
71294;SDS011;59080;31.686;73.862;2022-09-28T08:25:36;32.90;;;25.08;;
71294;SDS011;59080;31.686;73.862;2022-09-28T08:28:04;34.97;;;26.05;;
71294;SDS011;59080;31.686;73.862;2022-09-28T08:30:43;34.95;;;25.55;;
71294;SDS011;59080;31.686;73.862;2022-09-28T08:33:29;31.13;;;24.65;;
71294;SDS011;59080;31.686;73.862;2022-09-28T08:36:15;28.73;;;24.95;;
71294;SDS011;59080;31.686;73.862;2022-09-28T08:39:01;30.83;;;25.38;;
71294;SDS011;59080;31.686;73.862;2022-09-28T08:44:19;30.42;;;24.60;;
71294;SDS011;59080;31.686;73.862;2022-09-28T08:47:12;30.17;;;24.02;;
71294;SDS011;59080;31.686;73.862;2022-09-28T08:50:31;30.00;;;24.73;;
71294;SDS011;59080;31.686;73.862;2022-09-28T08:53:17;32.15;;;24.95;;
71294;SDS011;59080;31.686;73.862;2022-09-28T08:56:04;27.33;;;24.23;;
71294;SDS011;59080;31.686;73.862;2022-09-28T08:58:35;29.63;;;25.00;;
71294;SDS011;59080;31.686;73.862;2022-09-28T09:01:04;31.02;;;24.95;;
71294;SDS011;59080;31.686;73.862;2022-09-28T09:03:37;30.63;;;26.33;;
71294;SDS011;59080;31.686;73.862;2022-09-28T09:09:38;32.05;;;24.88;;
71294;SDS011;59080;31.686;73.862;2022-09-28T09:12:21;32.53;;;25.08;;
71294;SDS011;59080;31.686;73.862;2022-09-28T09:23:45;29.65;;;25.13;;
71294;SDS011;59080;31.686;73.862;2022-09-28T09:26:37;32.78;;;25.33;;
71294;SDS011;59080;31.686;73.862;2022-09-28T09:29:49;28.42;;;23.52;;
71294;SDS011;59080;31.686;73.862;2022-09-28T09:34:56;31.40;;;25.25;;
71294;SDS011;59080;31.686;73.862;2022-09-28T09:51:11;33.13;;;24.63;;
71294;SDS011;59080;31.686;73.862;2022-09-28T09:53:43;29.50;;;23.60;;
71294;SDS011;59080;31.686;73.862;2022-09-28T09:56:33;28.05;;;23.75;;
71294;SDS011;59080;31.686;73.862;2022-09-28T09:59:19;29.70;;;23.27;;
71294;SDS011;59080;31.686;73.862;2022-09-28T10:02:21;27.77;;;23.90;;
71294;SDS011;59080;31.686;73.862;2022-09-28T10:04:59;26.30;;;23.15;;
71294;SDS011;59080;31.686;73.862;2022-09-28T10:07:42;29.10;;;23.85;;
71294;SDS011;59080;31.686;73.862;2022-09-28T10:10:16;29.63;;;24.15;;
71294;SDS011;59080;31.686;73.862;2022-09-28T10:12:48;29.85;;;24.92;;
71294;SDS011;59080;31.686;73.862;2022-09-28T10:15:24;30.08;;;23.48;;
71294;SDS011;59080;31.686;73.862;2022-09-28T10:18:21;29.35;;;22.73;;
71294;SDS011;59080;31.686;73.862;2022-09-28T10:21:10;28.67;;;23.13;;
71294;SDS011;59080;31.686;73.862;2022-09-28T10:23:49;27.25;;;24.02;;
71294;SDS011;59080;31.686;73.862;2022-09-28T10:26:31;30.25;;;24.13;;
71294;SDS011;59080;31.686;73.862;2022-09-28T10:29:02;37.20;;;24.92;;
71294;SDS011;59080;31.686;73.862;2022-09-28T10:31:41;28.77;;;22.83;;
71294;SDS011;59080;31.686;73.862;2022-09-28T10:34:26;27.48;;;22.75;;
71294;SDS011;59080;31.686;73.862;2022-09-28T10:36:55;26.58;;;22.73;;
71294;SDS011;59080;31.686;73.862;2022-09-28T10:39:33;29.27;;;22.73;;
71294;SDS011;59080;31.686;73.862;2022-09-28T10:42:07;29.38;;;23.85;;
71294;SDS011;59080;31.686;73.862;2022-09-28T10:44:58;28.05;;;23.85;;
71294;SDS011;59080;31.686;73.862;2022-09-28T10:47:35;26.25;;;22.95;;
71294;SDS011;59080;31.686;73.862;2022-09-28T10:50:13;27.90;;;23.00;;
71294;SDS011;59080;31.686;73.862;2022-09-28T10:52:46;28.48;;;23.73;;
71294;SDS011;59080;31.686;73.862;2022-09-28T10:55:43;28.52;;;24.33;;
71294;SDS011;59080;31.686;73.862;2022-09-28T10:58:23;26.90;;;22.77;;
71294;SDS011;59080;31.686;73.862;2022-09-28T11:00:51;30.73;;;23.73;;
71294;SDS011;59080;31.686;73.862;2022-09-28T11:03:23;31.38;;;23.85;;
71294;SDS011;59080;31.686;73.862;2022-09-28T11:05:59;30.65;;;22.77;;
71294;SDS011;59080;31.686;73.862;2022-09-28T11:08:28;28.02;;;22.63;;
71294;SDS011;59080;31.686;73.862;2022-09-28T11:11:04;29.77;;;22.95;;
71294;SDS011;59080;31.686;73.862;2022-09-28T11:13:40;30.73;;;23.35;;
71294;SDS011;59080;31.686;73.862;2022-09-28T11:16:22;26.95;;;21.95;;
71294;SDS011;59080;31.686;73.862;2022-09-28T11:18:51;27.17;;;22.10;;
71294;SDS011;59080;31.686;73.862;2022-09-28T11:21:28;23.85;;;21.02;;
71294;SDS011;59080;31.686;73.862;2022-09-28T11:26:35;25.20;;;22.45;;
71294;SDS011;59080;31.686;73.862;2022-09-28T11:29:04;26.85;;;22.83;;
71294;SDS011;59080;31.686;73.862;2022-09-28T11:31:50;24.73;;;21.65;;
71294;SDS011;59080;31.686;73.862;2022-09-28T11:34:21;30.55;;;22.27;;
71294;SDS011;59080;31.686;73.862;2022-09-28T11:37:06;27.15;;;22.42;;
71294;SDS011;59080;31.686;73.862;2022-09-28T11:45:19;26.98;;;22.95;;
71294;SDS011;59080;31.686;73.862;2022-09-28T11:47:55;26.48;;;22.23;;
71294;SDS011;59080;31.686;73.862;2022-09-28T11:53:10;25.10;;;22.42;;
71294;SDS011;59080;31.686;73.862;2022-09-28T11:58:15;25.88;;;23.08;;
71294;SDS011;59080;31.686;73.862;2022-09-28T12:00:49;26.60;;;22.20;;
71294;SDS011;59080;31.686;73.862;2022-09-28T12:03:33;28.95;;;22.70;;
71294;SDS011;59080;31.686;73.862;2022-09-28T12:06:04;27.52;;;23.15;;
71294;SDS011;59080;31.686;73.862;2022-09-28T12:08:34;26.55;;;22.67;;
71294;SDS011;59080;31.686;73.862;2022-09-28T12:13:59;27.63;;;22.63;;
71294;SDS011;59080;31.686;73.862;2022-09-28T12:21:44;26.00;;;21.88;;
71294;SDS011;59080;31.686;73.862;2022-09-28T12:27:04;26.05;;;23.13;;
71294;SDS011;59080;31.686;73.862;2022-09-28T12:29:31;26.35;;;22.65;;
71294;SDS011;59080;31.686;73.862;2022-09-28T12:34:45;28.20;;;22.38;;
71294;SDS011;59080;31.686;73.862;2022-09-28T12:37:16;27.98;;;23.17;;
71294;SDS011;59080;31.686;73.862;2022-09-28T12:53:45;31.83;;;25.20;;
71294;SDS011;59080;31.686;73.862;2022-09-28T12:58:55;38.30;;;25.27;;
71294;SDS011;59080;31.686;73.862;2022-09-28T13:09:28;33.28;;;25.98;;
71294;SDS011;59080;31.686;73.862;2022-09-28T13:12:13;33.47;;;25.23;;
71294;SDS011;59080;31.686;73.862;2022-09-28T13:17:33;34.00;;;25.83;;
71294;SDS011;59080;31.686;73.862;2022-09-28T13:25:48;36.85;;;26.50;;
71294;SDS011;59080;31.686;73.862;2022-09-28T13:28:17;35.17;;;27.13;;
71294;SDS011;59080;31.686;73.862;2022-09-28T13:30:47;44.22;;;29.40;;
71294;SDS011;59080;31.686;73.862;2022-09-28T13:33:19;37.90;;;28.52;;
71294;SDS011;59080;31.686;73.862;2022-09-28T13:35:48;48.40;;;28.90;;
71294;SDS011;59080;31.686;73.862;2022-09-28T13:46:01;40.97;;;28.88;;
71294;SDS011;59080;31.686;73.862;2022-09-28T13:48:56;33.10;;;27.55;;
71294;SDS011;59080;31.686;73.862;2022-09-28T13:56:49;34.63;;;27.92;;
71294;SDS011;59080;31.686;73.862;2022-09-28T13:59:25;33.38;;;25.65;;
71294;SDS011;59080;31.686;73.862;2022-09-28T14:07:25;36.50;;;29.63;;
71294;SDS011;59080;31.686;73.862;2022-09-28T14:20:28;37.75;;;28.77;;
71294;SDS011;59080;31.686;73.862;2022-09-28T14:23:01;38.92;;;29.08;;
71294;SDS011;59080;31.686;73.862;2022-09-28T14:25:38;37.72;;;29.50;;
71294;SDS011;59080;31.686;73.862;2022-09-28T14:30:48;35.95;;;28.95;;
71294;SDS011;59080;31.686;73.862;2022-09-28T14:35:52;40.25;;;29.38;;
71294;SDS011;59080;31.686;73.862;2022-09-28T14:38:22;42.60;;;30.20;;
71294;SDS011;59080;31.686;73.862;2022-09-28T14:48:53;37.47;;;29.27;;
71294;SDS011;59080;31.686;73.862;2022-09-28T14:53:56;47.63;;;31.25;;
71294;SDS011;59080;31.686;73.862;2022-09-28T14:56:30;42.75;;;29.27;;
71294;SDS011;59080;31.686;73.862;2022-09-28T14:58:59;40.15;;;31.58;;
71294;SDS011;59080;31.686;73.862;2022-09-28T15:01:27;43.80;;;30.77;;
71294;SDS011;59080;31.686;73.862;2022-09-28T15:03:57;41.03;;;31.08;;
71294;SDS011;59080;31.686;73.862;2022-09-28T15:06:25;45.45;;;30.42;;
71294;SDS011;59080;31.686;73.862;2022-09-28T15:12:00;39.05;;;30.10;;
71294;SDS011;59080;31.686;73.862;2022-09-28T15:14:29;44.42;;;30.48;;
71294;SDS011;59080;31.686;73.862;2022-09-28T15:16:58;41.85;;;31.73;;
71294;SDS011;59080;31.686;73.862;2022-09-28T15:22:26;37.28;;;30.80;;
71294;SDS011;59080;31.686;73.862;2022-09-28T15:24:58;43.63;;;31.67;;
71294;SDS011;59080;31.686;73.862;2022-09-28T15:27:34;43.20;;;31.80;;
71294;SDS011;59080;31.686;73.862;2022-09-28T15:32:45;40.47;;;31.33;;
71294;SDS011;59080;31.686;73.862;2022-09-28T15:35:19;55.35;;;31.52;;
71294;SDS011;59080;31.686;73.862;2022-09-28T15:37:48;42.47;;;29.83;;
71294;SDS011;59080;31.686;73.862;2022-09-28T15:40:30;42.58;;;32.20;;
71294;SDS011;59080;31.686;73.862;2022-09-28T15:42:58;41.33;;;32.00;;
71294;SDS011;59080;31.686;73.862;2022-09-28T15:45:36;45.58;;;32.08;;
71294;SDS011;59080;31.686;73.862;2022-09-28T15:48:39;41.83;;;33.13;;
71294;SDS011;59080;31.686;73.862;2022-09-28T15:51:02;43.63;;;34.17;;
71294;SDS011;59080;31.686;73.862;2022-09-28T15:53:46;44.83;;;33.83;;
71294;SDS011;59080;31.686;73.862;2022-09-28T15:58:44;42.25;;;33.80;;
71294;SDS011;59080;31.686;73.862;2022-09-28T16:01:38;43.42;;;35.20;;
71294;SDS011;59080;31.686;73.862;2022-09-28T16:12:22;51.45;;;38.15;;
71294;SDS011;59080;31.686;73.862;2022-09-28T16:14:51;51.55;;;38.72;;
71294;SDS011;59080;31.686;73.862;2022-09-28T16:17:30;50.47;;;39.92;;
71294;SDS011;59080;31.686;73.862;2022-09-28T16:20:20;59.75;;;40.92;;
71294;SDS011;59080;31.686;73.862;2022-09-28T16:22:48;58.55;;;39.65;;
71294;SDS011;59080;31.686;73.862;2022-09-28T16:25:16;54.60;;;39.50;;
71294;SDS011;59080;31.686;73.862;2022-09-28T16:27:45;52.42;;;40.58;;
71294;SDS011;59080;31.686;73.862;2022-09-28T16:35:26;55.40;;;42.03;;
71294;SDS011;59080;31.686;73.862;2022-09-28T16:38:02;56.60;;;40.60;;
71294;SDS011;59080;31.686;73.862;2022-09-28T16:40:31;57.55;;;41.90;;
71294;SDS011;59080;31.686;73.862;2022-09-28T16:43:00;61.72;;;41.95;;
71294;SDS011;59080;31.686;73.862;2022-09-28T16:45:29;57.60;;;42.28;;
71294;SDS011;59080;31.686;73.862;2022-09-28T16:47:56;59.00;;;41.65;;
71294;SDS011;59080;31.686;73.862;2022-09-28T16:50:24;56.90;;;43.03;;
71294;SDS011;59080;31.686;73.862;2022-09-28T16:52:59;62.20;;;44.03;;
71294;SDS011;59080;31.686;73.862;2022-09-28T16:55:46;61.90;;;42.47;;
71294;SDS011;59080;31.686;73.862;2022-09-28T16:58:15;55.92;;;40.88;;
71294;SDS011;59080;31.686;73.862;2022-09-28T17:00:44;58.08;;;41.40;;
71294;SDS011;59080;31.686;73.862;2022-09-28T17:03:12;58.40;;;41.58;;
71294;SDS011;59080;31.686;73.862;2022-09-28T17:05:40;60.15;;;42.90;;
71294;SDS011;59080;31.686;73.862;2022-09-28T17:08:08;67.30;;;45.20;;
71294;SDS011;59080;31.686;73.862;2022-09-28T17:10:58;64.22;;;44.55;;
71294;SDS011;59080;31.686;73.862;2022-09-28T17:13:31;68.53;;;44.35;;
71294;SDS011;59080;31.686;73.862;2022-09-28T17:16:01;65.38;;;47.00;;
71294;SDS011;59080;31.686;73.862;2022-09-28T17:18:31;62.50;;;46.53;;
71294;SDS011;59080;31.686;73.862;2022-09-28T17:23:30;69.20;;;46.92;;
71294;SDS011;59080;31.686;73.862;2022-09-28T17:26:00;67.93;;;47.03;;
71294;SDS011;59080;31.686;73.862;2022-09-28T17:28:31;66.55;;;47.42;;
71294;SDS011;59080;31.686;73.862;2022-09-28T17:31:02;65.47;;;48.38;;
71294;SDS011;59080;31.686;73.862;2022-09-28T17:33:30;67.20;;;47.30;;
71294;SDS011;59080;31.686;73.862;2022-09-28T17:35:59;66.63;;;46.70;;
71294;SDS011;59080;31.686;73.862;2022-09-28T17:38:30;66.22;;;47.38;;
71294;SDS011;59080;31.686;73.862;2022-09-28T17:41:00;66.75;;;46.58;;
71294;SDS011;59080;31.686;73.862;2022-09-28T17:43:28;60.78;;;45.45;;
71294;SDS011;59080;31.686;73.862;2022-09-28T17:45:56;62.38;;;45.40;;
71294;SDS011;59080;31.686;73.862;2022-09-28T17:48:24;77.43;;;48.10;;
71294;SDS011;59080;31.686;73.862;2022-09-28T17:50:53;74.85;;;49.88;;
71294;SDS011;59080;31.686;73.862;2022-09-28T17:53:21;85.68;;;54.28;;
71294;SDS011;59080;31.686;73.862;2022-09-28T17:55:49;88.03;;;54.17;;
71294;SDS011;59080;31.686;73.862;2022-09-28T17:58:20;82.45;;;51.35;;
71294;SDS011;59080;31.686;73.862;2022-09-28T18:00:51;72.13;;;49.47;;
71294;SDS011;59080;31.686;73.862;2022-09-28T18:03:20;77.47;;;50.22;;
71294;SDS011;59080;31.686;73.862;2022-09-28T18:05:49;74.10;;;48.78;;
71294;SDS011;59080;31.686;73.862;2022-09-28T18:08:19;73.05;;;48.55;;
71294;SDS011;59080;31.686;73.862;2022-09-28T18:10:48;72.50;;;48.67;;
71294;SDS011;59080;31.686;73.862;2022-09-28T18:13:16;78.65;;;49.95;;